Aeroporto :
LOGIN :

Iscrizione | Disclaimer

   EN    FR    IT 

 










Sommario :    VFR   VFR Marginale   IFR   IFR Intensivo   IFR Molto Intensivo
Visibilità : 
Base nubi : 
>= 8 km
>= 3000ft
5 / 8 km
1000 / 3000 ft
1500m / 5 km
500 / 1000 ft
800 / 1500m
200 / 500 ft
< 800m
< 200 ft
Simboli :   Temporali  Nebbia  Neve Forte  Precipitazioni Forti  Vento > 20 kt
SIGMETs :   Varie  Temporali  Ghiacco  Turbolenza  Onda orograficha  Ceneri Vulcaniche






- Altitudine del aeroporto : -15 ft
- Codice IATA : RTM


EHRD - Rotterdam Zestienhoven

ULTIMO METAR :
  • 122055Z AUTO 19015KT 160V230 9999 BKN016 OVC019 06/04 Q0996 TEMPO 7000 -SHRA BKN012 FEW020CB

METARs OBSOLETI :
  • 122025Z AUTO 18014KT 150V210 9999 FEW016 SCT032 BKN039 06/04 Q0996 TEMPO 7000 -SHRA BKN012 FEW020CB
  • 121955Z AUTO 18011KT 150V220 9999 BKN016 OVC025 06/04 Q0996 TEMPO 7000 -SHRA BKN012 FEW020CB
  • 121925Z AUTO 19013KT 160V230 9999 FEW016 SCT038 BKN043 06/04 Q0996 TEMPO 7000 -SHRA BKN012 FEW020CB
  • 121855Z AUTO 19014KT 150V230 9999 FEW019 BKN030 BKN035 06/04 Q0996 TEMPO 7000 -SHRA BKN012 FEW020CB
  • 121825Z AUTO 19014KT 160V220 9999 FEW016 SCT020 06/03 Q0996 NOSIG

TAF TAF EHRD
Valido dal 12 a 18 ore il 14 a 00 ore UTC


121720Z 1218/1324 19016KT 9999 SCT025
TEMPO 1219/1301 21018G28KT 5000 RA SHRA BKN012 SCT020CB
BECMG 1300/1303 22013KT
TEMPO 1301/1319 6000 SHRA FEW015 SCT025CB
PROB30
TEMPO 1301/1315 27015G25KT 4000 SHRAGS SCT012 SCT020CB
BECMG 1307/1310 28013KT
BECMG 1314/1317 20008KT
BECMG 1319/1322 15010KT



MetMap, La meteo Aeronautica in un colpo d'occhio ! - Copyright ORBIFLY Dicembre 2007 - Disclaimer

ORBIFLY MET'MAP TEAM :

Programmazione e sviluppo : Alexandra Zaïnal
Concezione e sviluppo : Baudouin d'Aumeries
Co-Programmazione e sviluppo : Marc-Olivier Méhu
Supporto tecnico e logistico : Manuel Goepfert
Aiuto per la traduzione : Arnaldo La Scala

Contatto : metmap@orbifly.com




FONTI E CREDITI :

   NOAA